메인 페이지
METAR-TAF:

METAR-TAF

공항 :

Four Corners Regional Airport

Farmington, 뉴멕시코, 미국

위도: 36-44-37N, 경도: 108-13-45W, 고도: 1677m

현재 날씨관측

예보는 43분 전, 00:53시(UTC)에 발표되었습니다.
3kt
온도 6°C
습도 75%
기압 1023 hPa
시정: 16.1km
고도 5000ft 상공 구름 조금

METAR: KFMN 170053Z 17003KT 10SM FEW050 06/02 A3022 RMK AO2 RAE2355 SLP236 P0000 T00560017

시각: 18:36 (01:36 UTC)

예보

예보는 2 시간 6분 전, 23:30시(UTC)에 발표되었습니다.
예보 대상 시간: 17일 00시부터 17일 24시까지 (UTC)
서북서10kt
시정: 10km
고도 4000ft 상공 구름 보통
고도 6000ft 상공 구름 많음
일시적
17일 02시부터 17일 04시까지 (UTC)
고도 4000ft 상공 구름 많음
17일 0400시부터 (UTC)
북동5kt
시정: 10km
고도 4000ft 상공 구름 많음
17일 1000시부터 (UTC)
5kt
시정: 10km
고도 3000ft 상공 구름 많음
17일 1600시부터 (UTC)
동남동5kt
시정: 10km
고도 3000ft 상공 구름 조금
고도 15000ft 상공 구름 많음

TAF: KFMN 162330Z 1700/1724 30010KT P6SM SCT040 BKN060 TEMPO 1702/1704 BKN040 FM170400 05005KT P6SM BKN040 FM171000 09005KT P6SM BKN030 FM171600 11005KT P6SM FEW030 BKN150

4,000개 이상의 공항 관측 자료 및 예보 (METAR 및 TAF 보고).

지도상에서 검색 가능한 기상관측소가 노란 점과 빨간 점으로 표시되어 있습니다.

기상관측소 명을 보려면 표시 위로 마우스를 이동하세요.

날씨 관측과 예보를 보려면 클릭하세요.

지도 변경 : 확대하려면 엑스 표시가 있는 녹색 버튼, 축소하려면 빼기 표시가 있는 녹색 버튼, 다음 페이지의 지도를 보려면 녹색 화살표를 클릭하세요.


METAR-TAF: